createdAt,value
2022-08-07T00:02:36.132Z,99995.75
2022-08-07T00:04:58.140Z,99996.34
2022-08-07T00:07:27.257Z,99997.75
2022-08-07T00:10:18.779Z,99990.53
2022-08-07T00:12:43.650Z,99996.56
2022-08-07T00:15:24.742Z,99993.16
2022-08-07T00:18:02.452Z,99988.09
2022-08-07T00:20:34.164Z,99988.41
2022-08-07T00:23:03.350Z,99988.53
2022-08-07T00:25:37.498Z,99980.78
2022-08-07T00:28:08.697Z,99978.66
2022-08-07T00:30:37.665Z,99972.41
2022-08-07T00:33:04.565Z,99968.88
2022-08-07T00:35:35.293Z,99977.16
2022-08-07T00:38:05.313Z,99971.00
2022-08-07T00:40:40.150Z,99970.59
2022-08-07T00:43:10.028Z,99973.22
2022-08-07T00:45:38.133Z,99970.28
2022-08-07T00:48:09.255Z,99967.91
2022-08-07T00:50:46.488Z,99969.31
2022-08-07T00:53:20.252Z,99970.00
2022-08-07T00:56:00.470Z,99964.06
2022-08-07T00:58:30.198Z,99965.16
2022-08-07T01:00:57.089Z,99961.44
2022-08-07T01:03:25.483Z,99954.69
2022-08-07T01:06:10.645Z,99952.38
2022-08-07T01:08:43.173Z,99956.19
2022-08-07T01:12:04.745Z,99950.56
2022-08-07T01:14:05.277Z,99951.34
2022-08-07T01:16:32.109Z,99948.63
2022-08-07T01:18:58.896Z,99941.59
2022-08-07T01:21:27.547Z,99943.50
2022-08-07T01:23:57.093Z,99946.31
2022-08-07T01:26:26.061Z,99946.41
2022-08-07T01:28:53.810Z,99949.41
2022-08-07T01:31:21.893Z,99943.28
2022-08-07T01:33:55.796Z,99947.09
2022-08-07T01:36:33.564Z,99943.06
2022-08-07T01:39:10.240Z,99948.50
2022-08-07T01:41:37.477Z,99938.25
2022-08-07T01:44:05.380Z,99939.94
2022-08-07T01:46:32.366Z,99944.03
2022-08-07T01:48:59.997Z,99938.41
2022-08-07T01:52:01.294Z,99942.22
2022-08-07T01:54:33.255Z,99941.31
2022-08-07T01:57:08.296Z,99946.22
2022-08-07T01:59:43.996Z,99944.59
2022-08-07T02:03:05.722Z,99938.69
2022-08-07T02:05:07.648Z,99947.72
2022-08-07T02:07:51.188Z,99947.72
2022-08-07T02:10:24.509Z,99937.75
2022-08-07T02:12:52.565Z,99946.47
2022-08-07T02:15:23.605Z,99946.06
2022-08-07T02:17:54.104Z,99934.88
2022-08-07T02:20:24.623Z,99935.50
2022-08-07T02:22:55.315Z,99939.59
2022-08-07T02:26:11.361Z,99938.59
2022-08-07T02:28:14.846Z,99946.22
2022-08-07T02:30:52.730Z,99940.25
2022-08-07T02:33:21.078Z,99942.16
2022-08-07T02:36:29.498Z,99948.47
2022-08-07T02:38:38.522Z,99943.91
2022-08-07T02:41:08.010Z,99940.38
2022-08-07T02:43:39.757Z,99934.16
2022-08-07T02:46:08.437Z,99928.00
2022-08-07T02:48:36.204Z,99936.66
2022-08-07T02:51:29.040Z,99935.63
2022-08-07T02:53:57.907Z,99931.38
2022-08-07T02:56:31.421Z,99935.19
2022-08-07T02:59:02.040Z,99940.38
2022-08-07T03:01:36.051Z,99941.19
2022-08-07T03:04:07.796Z,99933.06
2022-08-07T03:06:40.349Z,99942.91
2022-08-07T03:09:11.147Z,99940.75
2022-08-07T03:11:52.266Z,99933.47
2022-08-07T03:14:25.971Z,99939.22
2022-08-07T03:16:55.103Z,99927.84
2022-08-07T03:19:22.427Z,99934.38
2022-08-07T03:21:50.883Z,99931.16
2022-08-07T03:24:27.594Z,99934.44
2022-08-07T03:27:00.170Z,99926.09
2022-08-07T03:29:29.577Z,99924.75
2022-08-07T03:31:57.104Z,99928.38
2022-08-07T03:34:27.729Z,99929.47
2022-08-07T03:36:57.377Z,99923.50
2022-08-07T03:39:46.201Z,99927.31
2022-08-07T03:42:15.237Z,99921.38
2022-08-07T03:44:42.898Z,99929.78
2022-08-07T03:47:19.994Z,99924.69
2022-08-07T03:49:52.566Z,99932.28
2022-08-07T03:52:26.695Z,99924.44
2022-08-07T03:54:57.431Z,99924.22
2022-08-07T03:58:32.892Z,99920.25
2022-08-07T04:00:29.378Z,99920.47
2022-08-07T04:03:03.889Z,99922.94
2022-08-07T04:05:40.363Z,99930.28
2022-08-07T04:08:11.196Z,99922.94
2022-08-07T04:10:38.854Z,99925.38
2022-08-07T04:13:07.320Z,99927.81
2022-08-07T04:15:42.491Z,99923.19
2022-08-07T04:18:56.817Z,99912.63
2022-08-07T04:20:58.750Z,99921.00
2022-08-07T04:23:43.383Z,99918.28
2022-08-07T04:26:14.612Z,99923.72
2022-08-07T04:28:45.106Z,99923.41
2022-08-07T04:31:20.135Z,99931.53
2022-08-07T04:33:56.574Z,99917.19
2022-08-07T04:36:26.050Z,99928.53
2022-08-07T04:38:53.183Z,99926.91
2022-08-07T04:41:19.834Z,99932.34
2022-08-07T04:44:12.216Z,99935.06
2022-08-07T04:46:59.304Z,99937.19
2022-08-07T04:49:38.563Z,99937.16
2022-08-07T04:52:14.501Z,99939.25
2022-08-07T04:54:52.270Z,99938.69
2022-08-07T04:58:11.029Z,99940.50
2022-08-07T05:00:30.133Z,99939.34
2022-08-07T05:03:17.265Z,99949.56
2022-08-07T05:06:00.661Z,99952.72
2022-08-07T05:08:59.518Z,99951.25
2022-08-07T05:11:26.309Z,99943.84
2022-08-07T05:14:55.368Z,99942.44
2022-08-07T05:17:11.818Z,99947.19
2022-08-07T05:19:45.334Z,99948.16
2022-08-07T05:22:26.569Z,99952.44
2022-08-07T05:24:55.677Z,99953.97
2022-08-07T05:28:16.733Z,99956.31
2022-08-07T05:30:11.602Z,99959.66
2022-08-07T05:32:40.857Z,99968.22
2022-08-07T05:35:10.191Z,99964.06
2022-08-07T05:37:42.316Z,99969.50
2022-08-07T05:40:18.620Z,99962.50
2022-08-07T05:42:55.885Z,99961.72
2022-08-07T05:45:46.049Z,99962.84
2022-08-07T05:48:14.008Z,99960.34
2022-08-07T05:50:42.702Z,99962.22
2022-08-07T05:54:12.001Z,99969.91
2022-08-07T05:56:03.815Z,99973.09
2022-08-07T05:58:36.584Z,99983.38
2022-08-07T06:01:05.950Z,99982.75
2022-08-07T06:03:57.189Z,99984.03
2022-08-07T06:06:29.343Z,99981.44
2022-08-07T06:08:57.511Z,99973.22
2022-08-07T06:11:25.302Z,99974.63
2022-08-07T06:14:11.953Z,99984.22
2022-08-07T06:16:40.504Z,99977.44
2022-08-07T06:19:18.091Z,99971.75
2022-08-07T06:22:15.556Z,99982.41
2022-08-07T06:24:55.635Z,99973.38
2022-08-07T06:27:59.734Z,99976.28
2022-08-07T06:30:24.280Z,99976.00
2022-08-07T06:33:01.009Z,99980.19
2022-08-07T06:35:39.127Z,99972.78
2022-08-07T06:38:20.590Z,99965.69
2022-08-07T06:40:51.123Z,99963.06
2022-08-07T06:43:22.296Z,99962.75
2022-08-07T06:45:49.638Z,99961.88
2022-08-07T06:48:25.277Z,99963.56
2022-08-07T06:50:54.944Z,99967.84
2022-08-07T06:55:28.226Z,99969.69
2022-08-07T06:56:15.506Z,99963.66
2022-08-07T07:00:12.087Z,99962.94
2022-08-07T07:01:44.061Z,99962.13
2022-08-07T07:04:28.435Z,99953.53
2022-08-07T07:07:02.008Z,99956.19
2022-08-07T07:09:31.285Z,99961.31
2022-08-07T07:12:19.586Z,99960.81
2022-08-07T07:14:55.723Z,99956.88
2022-08-07T07:17:38.805Z,99954.16
2022-08-07T07:20:11.708Z,99945.69
2022-08-07T07:24:08.529Z,99955.59
2022-08-07T07:26:33.381Z,99939.91
2022-08-07T07:28:42.262Z,99944.13
2022-08-07T07:31:17.327Z,99944.84
2022-08-07T07:33:56.951Z,99953.13
2022-08-07T07:36:32.352Z,99952.41
2022-08-07T07:39:03.422Z,99943.03
2022-08-07T07:42:01.813Z,99942.91
2022-08-07T07:44:21.553Z,99938.84
2022-08-07T07:47:00.252Z,99933.25
2022-08-07T07:50:36.410Z,99930.31
2022-08-07T07:52:30.465Z,99932.22
2022-08-07T07:55:00.833Z,99936.47
2022-08-07T07:57:51.843Z,99935.78
2022-08-07T08:00:29.075Z,99933.13
2022-08-07T08:03:01.015Z,99927.28
2022-08-07T08:05:43.249Z,99925.75
2022-08-07T08:08:33.994Z,99920.41
2022-08-07T08:11:08.502Z,99916.38
2022-08-07T08:13:53.208Z,99923.59
2022-08-07T08:16:26.534Z,99917.91
2022-08-07T08:19:00.267Z,99914.19
2022-08-07T08:22:02.624Z,99925.88
2022-08-07T08:24:44.942Z,99915.34
2022-08-07T08:27:16.698Z,99910.47
2022-08-07T08:29:55.712Z,99918.22
2022-08-07T08:32:38.613Z,99915.53
2022-08-07T08:35:09.589Z,99908.53
2022-08-07T08:38:00.761Z,99906.25
2022-08-07T08:40:30.347Z,99911.00
2022-08-07T08:43:08.833Z,99912.66
2022-08-07T08:45:41.830Z,99915.06
2022-08-07T08:48:36.148Z,99901.56
2022-08-07T08:51:14.624Z,99905.16
2022-08-07T08:54:02.276Z,99899.97
2022-08-07T08:56:33.335Z,99899.50
2022-08-07T08:59:13.523Z,99894.69
2022-08-07T09:01:49.122Z,99908.50
2022-08-07T09:04:26.144Z,99908.09
2022-08-07T09:07:03.371Z,99896.56
2022-08-07T09:09:57.049Z,99891.69
2022-08-07T09:12:37.217Z,99899.19
2022-08-07T09:16:22.310Z,99905.03
2022-08-07T09:18:33.363Z,99903.22
2022-08-07T09:21:13.870Z,99890.41
2022-08-07T09:24:32.969Z,99888.50
2022-08-07T09:26:56.784Z,99883.88
2022-08-07T09:30:06.114Z,99887.78
2022-08-07T09:32:41.004Z,99883.34
2022-08-07T09:36:04.016Z,99883.22
2022-08-07T09:38:12.545Z,99879.84
2022-08-07T09:41:02.054Z,99870.44
2022-08-07T09:44:05.853Z,99868.66
2022-08-07T09:47:51.488Z,99864.00
2022-08-07T09:50:00.452Z,99868.78
2022-08-07T09:52:40.580Z,99863.88
2022-08-07T09:55:28.899Z,99861.59
2022-08-07T09:58:32.238Z,99858.50
2022-08-07T10:01:08.427Z,99856.91
2022-08-07T10:04:05.497Z,99853.56
2022-08-07T10:06:58.710Z,99838.19
2022-08-07T10:10:00.793Z,99835.63
2022-08-07T10:13:00.935Z,99826.16
2022-08-07T10:15:46.159Z,99825.81
2022-08-07T10:18:31.398Z,99830.13
2022-08-07T10:21:50.343Z,99826.53
2022-08-07T10:24:23.339Z,99813.63
2022-08-07T10:27:10.219Z,99806.72
2022-08-07T10:29:59.752Z,99814.94
2022-08-07T10:32:52.735Z,99808.91
2022-08-07T10:35:53.581Z,99808.56
2022-08-07T10:38:35.874Z,99800.56
2022-08-07T10:41:46.309Z,99802.06
2022-08-07T10:44:15.955Z,99795.69
2022-08-07T10:46:53.953Z,99801.44
2022-08-07T10:49:49.918Z,99795.97
2022-08-07T10:52:19.038Z,99785.94
2022-08-07T10:55:01.393Z,99791.34
2022-08-07T10:57:56.301Z,99787.44
2022-08-07T11:00:42.825Z,99789.97
2022-08-07T11:03:15.778Z,99781.97
2022-08-07T11:05:51.834Z,99784.72
2022-08-07T11:08:32.212Z,99775.97
2022-08-07T11:11:08.903Z,99781.19
2022-08-07T11:14:44.240Z,99774.25
2022-08-07T11:16:34.344Z,99773.19
2022-08-07T11:19:07.027Z,99778.78
2022-08-07T11:21:43.036Z,99772.38
2022-08-07T11:24:17.712Z,99776.53
2022-08-07T11:26:51.053Z,99774.25
2022-08-07T11:29:42.024Z,99766.56
2022-08-07T11:32:26.131Z,99761.44
2022-08-07T11:34:57.412Z,99754.75
2022-08-07T11:37:38.328Z,99747.00
2022-08-07T11:40:35.999Z,99748.28
2022-08-07T11:43:29.809Z,99738.41
2022-08-07T11:46:17.119Z,99751.69
2022-08-07T11:49:51.538Z,99746.56
2022-08-07T11:52:03.530Z,99736.88
2022-08-07T11:54:42.014Z,99739.44
2022-08-07T11:58:00.591Z,99737.97
2022-08-07T12:00:19.104Z,99737.88
2022-08-07T12:03:42.269Z,99742.59
2022-08-07T12:06:37.801Z,99739.66
2022-08-07T12:09:16.419Z,99736.44
2022-08-07T12:12:10.795Z,99724.91
2022-08-07T12:14:55.762Z,99728.81
2022-08-07T12:17:34.145Z,99721.63
2022-08-07T12:20:20.919Z,99721.63
2022-08-07T12:24:04.825Z,99714.91
2022-08-07T12:26:28.555Z,99715.34
2022-08-07T12:29:05.937Z,99713.16
2022-08-07T12:31:53.079Z,99717.25
2022-08-07T12:34:29.076Z,99706.28
2022-08-07T12:36:59.712Z,99706.56
2022-08-07T12:39:43.027Z,99716.94
2022-08-07T12:42:13.177Z,99700.41
2022-08-07T12:44:45.394Z,99694.78
2022-08-07T12:47:21.841Z,99690.78
2022-08-07T12:50:04.464Z,99695.13
2022-08-07T12:52:47.599Z,99693.84
2022-08-07T12:55:24.945Z,99689.56
2022-08-07T12:58:12.961Z,99680.75
2022-08-07T13:00:51.118Z,99681.13
2022-08-07T13:04:00.637Z,99678.56
2022-08-07T13:07:01.253Z,99683.34
2022-08-07T13:10:21.891Z,99684.91
2022-08-07T13:12:43.740Z,99676.56
2022-08-07T13:15:29.561Z,99674.22
2022-08-07T13:18:25.863Z,99673.59
2022-08-07T13:20:59.171Z,99679.44
2022-08-07T13:24:02.052Z,99668.56
2022-08-07T13:26:31.310Z,99678.53
2022-08-07T13:29:10.850Z,99668.56
2022-08-07T13:31:46.283Z,99664.56
2022-08-07T13:34:44.734Z,99655.09
2022-08-07T13:37:25.260Z,99655.34
2022-08-07T13:40:36.702Z,99657.25
2022-08-07T13:42:57.959Z,99657.66
2022-08-07T13:46:21.117Z,99655.50
2022-08-07T13:48:20.538Z,99649.06
2022-08-07T13:51:02.012Z,99650.78
2022-08-07T13:53:35.902Z,99650.69
2022-08-07T13:56:35.357Z,99640.13
2022-08-07T13:59:12.899Z,99639.44
2022-08-07T14:01:59.129Z,99637.91
2022-08-07T14:04:35.784Z,99633.09
2022-08-07T14:07:09.658Z,99633.56
2022-08-07T14:10:12.239Z,99635.69
2022-08-07T14:12:36.843Z,99629.53
2022-08-07T14:15:22.357Z,99631.03
2022-08-07T14:18:27.258Z,99636.13
2022-08-07T14:20:49.239Z,99627.13
2022-08-07T14:23:58.798Z,99624.94
2022-08-07T14:26:29.654Z,99622.78
2022-08-07T14:29:10.493Z,99625.00
2022-08-07T14:31:56.043Z,99624.47
2022-08-07T14:34:29.524Z,99625.06
2022-08-07T14:36:58.666Z,99619.13
2022-08-07T14:40:16.871Z,99616.56
2022-08-07T14:42:24.824Z,99605.34
2022-08-07T14:44:59.765Z,99603.72
2022-08-07T14:47:32.642Z,99608.88
2022-08-07T14:50:06.590Z,99605.72
2022-08-07T14:52:39.398Z,99595.84
2022-08-07T14:55:09.973Z,99605.75
2022-08-07T14:57:58.491Z,99598.66
2022-08-07T15:00:30.339Z,99596.41
2022-08-07T15:03:18.834Z,99598.19
2022-08-07T15:05:54.876Z,99598.66
2022-08-07T15:08:35.362Z,99594.91
2022-08-07T15:11:53.575Z,99592.09
2022-08-07T15:14:11.582Z,99591.91
2022-08-07T15:16:54.839Z,99580.16
2022-08-07T15:20:31.381Z,99576.84
2022-08-07T15:31:05.135Z,99583.41
2022-08-07T15:33:33.809Z,99578.63
2022-08-07T15:36:06.934Z,99571.66
2022-08-07T15:38:59.196Z,99572.56
2022-08-07T15:42:46.569Z,99578.22
2022-08-07T15:44:13.795Z,99580.78
2022-08-07T15:46:51.866Z,99570.19
2022-08-07T15:50:05.252Z,99566.44
2022-08-07T15:52:20.557Z,99563.16
2022-08-07T15:54:49.360Z,99563.88
2022-08-07T15:57:39.324Z,99563.44
2022-08-07T16:00:08.768Z,99560.19
2022-08-07T16:02:58.738Z,99560.63
2022-08-07T16:05:31.261Z,99555.09
2022-08-07T16:08:30.324Z,99549.06
2022-08-07T16:10:57.909Z,99560.84
2022-08-07T16:13:58.502Z,99554.50
2022-08-07T16:16:49.870Z,99556.47
2022-08-07T16:19:58.704Z,99547.47
2022-08-07T16:22:55.725Z,99548.63
2022-08-07T16:25:55.529Z,99546.78
2022-08-07T16:29:18.487Z,99549.94
2022-08-07T16:31:57.420Z,99545.50
2022-08-07T16:34:33.669Z,99539.59
2022-08-07T16:38:06.139Z,99536.19
2022-08-07T16:41:01.610Z,99543.19
2022-08-07T16:44:02.533Z,99537.81
2022-08-07T16:47:04.965Z,99541.25
2022-08-07T16:50:26.727Z,99541.22
2022-08-07T16:53:20.673Z,99545.16
2022-08-07T16:55:53.592Z,99537.75
2022-08-07T16:58:22.893Z,99540.13
2022-08-07T17:01:09.620Z,99532.72
2022-08-07T17:03:58.118Z,99536.91
2022-08-07T17:06:45.862Z,99536.09
2022-08-07T17:10:08.248Z,99534.09
2022-08-07T17:12:44.455Z,99535.41
2022-08-07T17:15:07.333Z,99533.25
2022-08-07T17:17:46.667Z,99539.97
2022-08-07T17:20:22.717Z,99538.72
2022-08-07T17:23:02.339Z,99548.66
2022-08-07T17:25:51.362Z,99544.88
2022-08-07T17:28:31.201Z,99543.47
2022-08-07T17:31:16.675Z,99538.53
2022-08-07T17:34:15.400Z,99541.25
2022-08-07T17:36:48.957Z,99547.81
2022-08-07T17:39:57.754Z,99545.78
2022-08-07T17:42:27.211Z,99537.25
2022-08-07T17:44:58.643Z,99544.06
2022-08-07T17:47:38.133Z,99544.56
2022-08-07T17:50:16.534Z,99540.59
2022-08-07T17:52:50.223Z,99549.00
2022-08-07T17:55:55.747Z,99547.91
2022-08-07T17:58:30.418Z,99550.31
2022-08-07T18:01:18.043Z,99556.75
2022-08-07T18:04:07.151Z,99541.34
2022-08-07T18:06:43.254Z,99547.06
2022-08-07T18:09:18.774Z,99544.31
2022-08-07T18:12:19.748Z,99540.69
2022-08-07T18:15:01.755Z,99549.38
2022-08-07T18:18:46.849Z,99552.38
2022-08-07T18:21:07.006Z,99550.53
2022-08-07T18:23:43.092Z,99549.91
2022-08-07T18:26:18.057Z,99548.81
2022-08-07T18:29:02.555Z,99560.41
2022-08-07T18:31:50.172Z,99561.66
2022-08-07T18:34:53.306Z,99562.13
2022-08-07T18:38:57.524Z,99570.53
2022-08-07T18:40:53.839Z,99563.44
2022-08-07T18:43:43.194Z,99564.66
2022-08-07T18:46:24.748Z,99571.03
2022-08-07T18:50:19.730Z,99574.63
2022-08-07T18:52:35.345Z,99576.97
2022-08-07T18:54:53.490Z,99589.22
2022-08-07T19:00:56.605Z,99576.06
2022-08-07T19:03:37.571Z,99574.41
2022-08-07T19:06:11.644Z,99590.56
2022-08-07T19:09:09.424Z,99590.56
2022-08-07T19:12:11.140Z,99590.50
2022-08-07T19:14:52.268Z,99597.19
2022-08-07T19:18:01.100Z,99601.47
2022-08-07T19:20:29.378Z,99615.25
2022-08-07T19:23:18.718Z,99611.22
2022-08-07T19:26:21.687Z,99613.13
2022-08-07T19:30:57.410Z,99612.16
2022-08-07T19:31:57.792Z,99617.63
2022-08-07T19:34:34.417Z,99618.38
2022-08-07T19:37:17.442Z,99619.47
2022-08-07T19:39:56.721Z,99623.38
2022-08-07T19:42:31.312Z,99632.03
2022-08-07T19:45:08.638Z,99635.97
2022-08-07T19:47:43.065Z,99631.94
2022-08-07T19:50:43.900Z,99634.63
2022-08-07T19:52:58.763Z,99628.25
2022-08-07T19:55:56.955Z,99638.84
2022-08-07T19:58:22.176Z,99636.56
2022-08-07T20:00:56.992Z,99647.63
2022-08-07T20:03:34.553Z,99633.84
2022-08-07T20:06:05.244Z,99640.94
2022-08-07T20:08:35.655Z,99632.66
2022-08-07T20:11:09.757Z,99634.31
2022-08-07T20:13:45.452Z,99631.38
2022-08-07T20:16:34.773Z,99635.88
2022-08-07T20:19:05.819Z,99639.44
2022-08-07T20:21:41.760Z,99647.81
2022-08-07T20:24:19.108Z,99643.28
2022-08-07T20:26:50.049Z,99637.56
2022-08-07T20:29:48.146Z,99649.59
2022-08-07T20:32:22.444Z,99654.50
2022-08-07T20:34:52.621Z,99650.78
2022-08-07T20:37:25.075Z,99652.09
2022-08-07T20:40:03.240Z,99660.09
2022-08-07T20:42:33.295Z,99653.56
2022-08-07T20:45:04.471Z,99656.84
2022-08-07T20:47:56.853Z,99640.84
2022-08-07T20:50:26.526Z,99654.44
2022-08-07T20:52:53.318Z,99659.25
2022-08-07T20:55:23.802Z,99662.63
2022-08-07T20:58:02.303Z,99665.38
2022-08-07T21:00:42.178Z,99660.56
2022-08-07T21:03:11.794Z,99660.03
2022-08-07T21:05:55.876Z,99667.38
2022-08-07T21:08:37.264Z,99665.25
2022-08-07T21:11:11.995Z,99678.00
2022-08-07T21:14:16.631Z,99666.84
2022-08-07T21:16:56.608Z,99671.78
2022-08-07T21:19:32.214Z,99668.75
2022-08-07T21:22:16.315Z,99674.03
2022-08-07T21:24:55.261Z,99671.66
2022-08-07T21:27:40.061Z,99667.22
2022-08-07T21:30:17.047Z,99683.00
2022-08-07T21:33:05.335Z,99690.84
2022-08-07T21:36:05.630Z,99680.47
2022-08-07T21:38:31.198Z,99679.44
2022-08-07T21:41:08.187Z,99675.78
2022-08-07T21:43:56.259Z,99679.81
2022-08-07T21:46:32.452Z,99679.59
2022-08-07T21:49:14.756Z,99675.84
2022-08-07T21:51:56.126Z,99677.53
2022-08-07T21:54:34.857Z,99678.91
2022-08-07T21:57:16.108Z,99676.28
2022-08-07T22:00:06.145Z,99672.84
2022-08-07T22:02:41.367Z,99680.63
2022-08-07T22:05:21.718Z,99680.34
2022-08-07T22:07:58.736Z,99677.94
2022-08-07T22:10:29.463Z,99678.66
2022-08-07T22:13:03.066Z,99681.38
2022-08-07T22:16:43.511Z,99671.31
2022-08-07T22:18:32.754Z,99677.34
2022-08-07T22:21:07.685Z,99674.81
2022-08-07T22:23:44.995Z,99672.84
2022-08-07T22:26:17.857Z,99671.47
2022-08-07T22:28:53.527Z,99678.16
2022-08-07T22:31:56.074Z,99673.00
2022-08-07T22:34:29.148Z,99668.75
2022-08-07T22:37:12.710Z,99677.53
2022-08-07T22:39:52.841Z,99678.06
2022-08-07T22:42:25.790Z,99674.06
2022-08-07T22:44:58.709Z,99677.00
2022-08-07T22:47:37.619Z,99676.41
2022-08-07T22:50:33.328Z,99674.53
2022-08-07T22:54:06.661Z,99664.63
2022-08-07T22:56:32.650Z,99665.28
2022-08-07T22:59:23.830Z,99671.75
2022-08-07T23:02:01.180Z,99673.91
2022-08-07T23:04:58.178Z,99672.84
2022-08-07T23:07:53.170Z,99684.09
2022-08-07T23:10:42.166Z,99682.22
2022-08-07T23:13:48.549Z,99674.41
2022-08-07T23:16:46.757Z,99679.72
2022-08-07T23:19:48.149Z,99675.09
2022-08-07T23:22:34.851Z,99681.88
2022-08-07T23:25:19.021Z,99673.75
2022-08-07T23:28:21.845Z,99675.19
2022-08-07T23:31:13.886Z,99669.13
2022-08-07T23:34:37.442Z,99670.88
2022-08-07T23:37:33.937Z,99673.19
2022-08-07T23:40:14.445Z,99668.38
2022-08-07T23:43:04.101Z,99677.06
2022-08-07T23:46:02.585Z,99683.84
2022-08-07T23:48:47.050Z,99685.28
2022-08-07T23:53:01.973Z,99685.16
2022-08-07T23:54:19.958Z,99678.59
2022-08-07T23:57:12.206Z,99677.94
